createdAt,value
2023-01-19T00:01:07.851Z,98894.06
2023-01-19T00:03:36.987Z,98897.09
2023-01-19T00:06:09.141Z,98896.28
2023-01-19T00:08:37.765Z,98905.75
2023-01-19T00:11:06.373Z,98905.63
2023-01-19T00:13:34.957Z,98901.91
2023-01-19T00:16:05.332Z,98907.03
2023-01-19T00:18:33.815Z,98907.44
2023-01-19T00:21:02.247Z,98911.53
2023-01-19T00:23:30.650Z,98913.34
2023-01-19T00:25:59.066Z,98915.69
2023-01-19T00:28:27.541Z,98914.88
2023-01-19T00:30:55.957Z,98915.13
2023-01-19T00:33:24.357Z,98921.47
2023-01-19T00:35:54.968Z,98919.84
2023-01-19T00:38:25.709Z,98930.97
2023-01-19T00:40:54.160Z,98930.03
2023-01-19T00:43:21.656Z,98937.16
2023-01-19T00:45:50.154Z,98933.72
2023-01-19T00:48:18.590Z,98934.25
2023-01-19T00:50:47.230Z,98935.91
2023-01-19T00:53:15.847Z,98937.44
2023-01-19T00:55:44.240Z,98943.50
2023-01-19T00:58:12.877Z,98952.72
2023-01-19T01:00:41.397Z,98943.19
2023-01-19T01:03:09.889Z,98936.75
2023-01-19T01:05:41.084Z,98951.47
2023-01-19T01:08:09.520Z,98943.22
2023-01-19T01:10:38.135Z,98938.66
2023-01-19T01:13:20.955Z,98935.22
2023-01-19T01:15:54.747Z,98952.00
2023-01-19T01:18:23.753Z,98949.97
2023-01-19T01:20:53.925Z,98947.91
2023-01-19T01:23:23.740Z,98953.69
2023-01-19T01:25:52.208Z,98951.06
2023-01-19T01:28:20.658Z,98957.81
2023-01-19T01:30:49.471Z,98955.19
2023-01-19T01:33:40.052Z,98954.38
2023-01-19T01:36:06.389Z,98958.50
2023-01-19T01:38:34.870Z,98967.16
2023-01-19T01:41:03.398Z,98963.88
2023-01-19T01:44:38.119Z,98966.34
2023-01-19T01:47:07.236Z,98969.38
2023-01-19T01:49:35.609Z,98961.41
2023-01-19T01:52:04.553Z,98966.47
2023-01-19T01:54:34.909Z,98957.94
2023-01-19T01:57:12.247Z,98961.66
2023-01-19T01:59:46.912Z,98952.28
2023-01-19T02:06:22.358Z,98957.22
2023-01-19T02:09:25.155Z,98965.63
2023-01-19T02:12:10.854Z,98965.91
2023-01-19T02:14:39.384Z,98963.16
2023-01-19T02:17:08.069Z,98971.00
2023-01-19T02:19:46.595Z,98970.28
2023-01-19T02:22:25.471Z,98972.50
2023-01-19T02:24:54.268Z,98972.50
2023-01-19T02:27:22.755Z,98970.84
2023-01-19T02:29:51.369Z,98972.50
2023-01-19T02:32:19.777Z,98975.41
2023-01-19T02:34:48.277Z,98973.72
2023-01-19T02:37:18.760Z,98974.84
2023-01-19T02:40:10.661Z,98977.84
2023-01-19T02:42:51.596Z,98966.81
2023-01-19T02:45:23.382Z,98966.53
2023-01-19T02:47:53.540Z,98959.25
2023-01-19T02:50:46.976Z,98963.44
2023-01-19T02:53:48.761Z,98953.66
2023-01-19T02:56:26.592Z,98967.09
2023-01-19T02:59:23.395Z,98958.31
2023-01-19T03:01:57.586Z,98960.09
2023-01-19T03:04:56.487Z,98963.13
2023-01-19T03:07:29.000Z,98969.44
2023-01-19T03:10:42.867Z,98956.09
2023-01-19T03:13:54.568Z,98955.53
2023-01-19T03:16:55.198Z,98961.75
2023-01-19T03:19:45.082Z,98965.97
2023-01-19T03:22:33.873Z,98960.34
2023-01-19T03:25:04.239Z,98964.19
2023-01-19T03:27:40.759Z,98970.66
2023-01-19T03:30:18.706Z,98971.34
2023-01-19T03:32:53.413Z,98966.22
2023-01-19T03:35:26.105Z,98969.94
2023-01-19T03:37:58.293Z,98967.59
2023-01-19T03:40:32.568Z,98971.16
2023-01-19T03:43:02.531Z,98973.63
2023-01-19T03:45:33.802Z,98972.25
2023-01-19T03:48:02.261Z,98970.84
2023-01-19T03:50:32.154Z,98984.50
2023-01-19T03:53:09.385Z,98982.28
2023-01-19T03:55:40.388Z,98982.97
2023-01-19T03:58:09.050Z,98985.59
2023-01-19T04:00:37.817Z,98986.41
2023-01-19T04:03:16.309Z,98990.38
2023-01-19T04:05:45.743Z,99001.41
2023-01-19T04:08:14.408Z,98994.09
2023-01-19T04:10:43.096Z,99006.72
2023-01-19T04:13:11.610Z,99000.53
2023-01-19T04:15:40.158Z,99009.59
2023-01-19T04:18:09.750Z,99010.28
2023-01-19T04:20:39.010Z,99012.63
2023-01-19T04:23:07.507Z,99017.16
2023-01-19T04:25:38.009Z,99017.41
2023-01-19T04:28:07.401Z,99010.53
2023-01-19T04:30:35.988Z,99011.63
2023-01-19T04:33:04.494Z,99018.63
2023-01-19T04:35:34.307Z,99015.34
2023-01-19T04:38:02.848Z,99015.59
2023-01-19T04:40:31.888Z,99014.72
2023-01-19T04:43:00.614Z,99012.94
2023-01-19T04:45:29.399Z,99018.41
2023-01-19T04:47:58.033Z,99014.00
2023-01-19T04:50:26.704Z,99016.50
2023-01-19T04:52:55.130Z,99011.94
2023-01-19T04:55:23.595Z,99015.84
2023-01-19T04:57:52.091Z,99019.34
2023-01-19T05:00:21.001Z,99019.72
2023-01-19T05:02:49.577Z,99023.31
2023-01-19T05:05:18.340Z,99023.13
2023-01-19T05:07:47.122Z,99017.63
2023-01-19T05:10:16.015Z,99015.03
2023-01-19T05:12:44.491Z,99009.44
2023-01-19T05:15:13.294Z,99005.97
2023-01-19T05:17:41.932Z,99007.41
2023-01-19T05:20:15.735Z,99008.44
2023-01-19T05:22:49.489Z,99017.63
2023-01-19T05:25:18.099Z,99023.56
2023-01-19T05:27:46.873Z,99029.22
2023-01-19T05:30:16.023Z,99024.94
2023-01-19T05:32:44.536Z,99017.94
2023-01-19T05:35:13.539Z,99022.22
2023-01-19T05:37:42.111Z,99036.81
2023-01-19T05:40:11.329Z,99034.72
2023-01-19T05:42:40.042Z,99036.38
2023-01-19T05:45:09.140Z,99030.19
2023-01-19T05:47:37.738Z,99033.63
2023-01-19T05:50:06.836Z,99033.75
2023-01-19T05:52:35.325Z,99032.09
2023-01-19T06:03:16.355Z,99025.94
2023-01-19T06:05:44.824Z,99024.13
2023-01-19T06:08:13.377Z,99025.78
2023-01-19T06:10:42.099Z,99030.56
2023-01-19T06:13:11.263Z,99036.50
2023-01-19T06:15:39.972Z,99035.34
2023-01-19T06:18:08.440Z,99032.34
2023-01-19T06:20:37.804Z,99043.13
2023-01-19T06:23:06.608Z,99048.09
2023-01-19T06:25:35.159Z,99051.78
2023-01-19T06:28:03.691Z,99053.44
2023-01-19T06:30:32.205Z,99049.03
2023-01-19T06:33:01.088Z,99055.34
2023-01-19T06:35:29.769Z,99056.19
2023-01-19T06:37:58.269Z,99052.22
2023-01-19T06:40:26.985Z,99049.50
2023-01-19T06:42:55.443Z,99052.91
2023-01-19T06:45:23.946Z,99048.53
2023-01-19T06:47:52.601Z,99048.41
2023-01-19T06:50:21.105Z,99040.56
2023-01-19T06:52:52.367Z,99037.00
2023-01-19T06:55:20.819Z,99047.47
2023-01-19T06:57:56.905Z,99040.81
2023-01-19T07:00:25.558Z,99049.25
2023-01-19T07:02:54.177Z,99048.25
2023-01-19T07:05:22.949Z,99045.66
2023-01-19T07:07:55.954Z,99045.28
2023-01-19T07:10:25.239Z,99043.75
2023-01-19T07:12:53.892Z,99045.78
2023-01-19T07:15:22.673Z,99047.47
2023-01-19T07:17:51.236Z,99045.28
2023-01-19T07:20:19.785Z,99055.97
2023-01-19T07:22:48.955Z,99050.06
2023-01-19T07:25:17.608Z,99063.00
2023-01-19T07:27:46.176Z,99070.00
2023-01-19T07:30:16.136Z,99076.94
2023-01-19T07:32:44.748Z,99081.47
2023-01-19T07:35:13.248Z,99093.88
2023-01-19T07:37:41.740Z,99091.94
2023-01-19T07:40:10.917Z,99091.78
2023-01-19T07:42:39.449Z,99097.72
2023-01-19T07:45:08.399Z,99108.72
2023-01-19T07:47:36.916Z,99106.25
2023-01-19T07:50:05.714Z,99100.88
2023-01-19T07:52:34.208Z,99104.59
2023-01-19T07:55:02.878Z,99109.19
2023-01-19T07:57:31.513Z,99109.50
2023-01-19T08:00:00.089Z,99097.97
2023-01-19T08:02:28.618Z,99092.88
2023-01-19T08:04:57.258Z,99099.75
2023-01-19T08:07:26.294Z,99105.53
2023-01-19T08:09:54.797Z,99099.94
2023-01-19T08:12:23.307Z,99106.56
2023-01-19T08:14:51.850Z,99108.91
2023-01-19T08:17:20.590Z,99107.69
2023-01-19T08:19:49.037Z,99114.47
2023-01-19T08:22:17.488Z,99111.00
2023-01-19T08:24:45.741Z,99111.31
2023-01-19T08:27:14.236Z,99109.53
2023-01-19T08:29:42.675Z,99116.94
2023-01-19T08:32:11.608Z,99105.78
2023-01-19T08:34:40.226Z,99099.31
2023-01-19T08:37:08.676Z,99101.13
2023-01-19T08:39:37.102Z,99111.06
2023-01-19T08:42:05.628Z,99113.78
2023-01-19T08:44:34.181Z,99105.56
2023-01-19T08:47:02.803Z,99112.19
2023-01-19T08:49:31.351Z,99117.84
2023-01-19T08:51:59.940Z,99116.06
2023-01-19T08:54:38.168Z,99122.72
2023-01-19T08:57:06.694Z,99118.84
2023-01-19T08:59:35.890Z,99111.44
2023-01-19T09:02:04.424Z,99122.22
2023-01-19T09:04:34.602Z,99114.38
2023-01-19T09:07:03.057Z,99124.41
2023-01-19T09:09:31.619Z,99128.97
2023-01-19T09:12:00.057Z,99125.78
2023-01-19T09:14:28.587Z,99135.72
2023-01-19T09:16:57.443Z,99137.09
2023-01-19T09:19:26.270Z,99128.16
2023-01-19T09:21:55.622Z,99129.91
2023-01-19T09:24:24.255Z,99136.16
2023-01-19T09:26:52.730Z,99128.16
2023-01-19T09:29:21.328Z,99138.81
2023-01-19T09:31:49.861Z,99139.66
2023-01-19T09:34:18.426Z,99145.19
2023-01-19T09:36:48.615Z,99143.28
2023-01-19T09:39:17.117Z,99142.75
2023-01-19T09:41:55.645Z,99145.09
2023-01-19T09:44:34.153Z,99142.63
2023-01-19T09:47:15.683Z,99137.69
2023-01-19T09:49:52.490Z,99139.75
2023-01-19T09:52:22.355Z,99144.84
2023-01-19T09:54:58.241Z,99139.88
2023-01-19T09:57:28.299Z,99133.69
2023-01-19T09:59:59.827Z,99131.78
2023-01-19T10:02:54.428Z,99137.41
2023-01-19T10:05:44.788Z,99129.16
2023-01-19T10:08:44.306Z,99124.88
2023-01-19T10:11:54.003Z,99130.78
2023-01-19T10:14:53.344Z,99117.13
2023-01-19T10:17:57.421Z,99120.75
2023-01-19T10:20:34.588Z,99125.53
2023-01-19T10:23:07.212Z,99125.41
2023-01-19T10:25:35.802Z,99112.88
2023-01-19T10:28:04.715Z,99114.91
2023-01-19T10:30:33.445Z,99110.50
2023-01-19T10:33:02.515Z,99106.66
2023-01-19T10:35:31.646Z,99108.53
2023-01-19T10:38:02.539Z,99102.88
2023-01-19T10:40:47.809Z,99101.09
2023-01-19T10:43:42.137Z,99104.41
2023-01-19T10:46:46.324Z,99101.22
2023-01-19T10:49:37.815Z,99109.91
2023-01-19T10:52:09.268Z,99120.91
2023-01-19T10:54:38.947Z,99122.41
2023-01-19T10:57:10.806Z,99115.25
2023-01-19T10:59:46.147Z,99112.88
2023-01-19T11:02:14.768Z,99103.19
2023-01-19T11:04:45.086Z,99109.81
2023-01-19T11:07:34.251Z,99112.31
2023-01-19T11:10:34.946Z,99110.63
2023-01-19T11:13:15.871Z,99111.72
2023-01-19T11:15:53.138Z,99113.94
2023-01-19T11:18:41.713Z,99115.84
2023-01-19T11:21:14.875Z,99108.38
2023-01-19T11:23:51.078Z,99116.25
2023-01-19T11:26:35.463Z,99100.88
2023-01-19T11:29:05.335Z,99102.16
2023-01-19T11:31:37.482Z,99114.00
2023-01-19T11:34:23.536Z,99116.22
2023-01-19T11:37:22.845Z,99107.63
2023-01-19T11:40:02.931Z,99097.31
2023-01-19T11:42:34.618Z,99095.06
2023-01-19T11:45:14.621Z,99087.13
2023-01-19T11:47:52.440Z,99078.06
2023-01-19T11:50:35.110Z,99083.72
2023-01-19T11:53:29.490Z,99068.31
2023-01-19T11:56:07.073Z,99079.38
2023-01-19T11:58:41.163Z,99085.09
2023-01-19T12:01:51.677Z,99077.56
2023-01-19T12:04:30.713Z,99091.00
2023-01-19T12:07:07.589Z,99079.53
2023-01-19T12:09:46.126Z,99079.91
2023-01-19T12:12:26.428Z,99087.47
2023-01-19T12:15:18.457Z,99089.91
2023-01-19T12:17:50.992Z,99085.53
2023-01-19T12:20:45.013Z,99082.25
2023-01-19T12:23:22.251Z,99083.88
2023-01-19T12:26:18.935Z,99073.38
2023-01-19T12:28:52.588Z,99084.56
2023-01-19T12:31:23.449Z,99078.94
2023-01-19T12:33:52.794Z,99088.88
2023-01-19T12:36:33.400Z,99095.16
2023-01-19T12:39:25.238Z,99090.06
2023-01-19T12:42:20.439Z,99104.56
2023-01-19T12:44:50.085Z,99097.25
2023-01-19T12:47:20.266Z,99090.28
2023-01-19T12:49:56.625Z,99099.53
2023-01-19T12:52:41.572Z,99092.97
2023-01-19T12:55:15.890Z,99094.63
2023-01-19T12:58:19.035Z,99097.56
2023-01-19T13:00:50.542Z,99093.56
2023-01-19T13:03:19.006Z,99092.84
2023-01-19T13:05:57.384Z,99095.50
2023-01-19T13:08:30.059Z,99094.31
2023-01-19T13:11:05.081Z,99096.06
2023-01-19T13:13:37.201Z,99095.63
2023-01-19T13:16:20.582Z,99103.63
2023-01-19T13:19:06.599Z,99110.06
2023-01-19T13:21:45.429Z,99110.44
2023-01-19T13:24:23.360Z,99110.66
2023-01-19T13:26:51.749Z,99107.28
2023-01-19T13:29:38.621Z,99108.78
2023-01-19T13:32:19.340Z,99107.28
2023-01-19T13:34:53.738Z,99118.78
2023-01-19T13:37:27.173Z,99116.22
2023-01-19T13:39:56.635Z,99116.38
2023-01-19T13:42:43.016Z,99114.91
2023-01-19T13:45:31.209Z,99116.38
2023-01-19T13:48:02.726Z,99118.84
2023-01-19T13:50:37.646Z,99114.69
2023-01-19T13:53:21.214Z,99111.41
2023-01-19T13:55:49.719Z,99111.06
2023-01-19T13:58:26.242Z,99117.22
2023-01-19T14:00:54.822Z,99115.41
2023-01-19T14:03:25.127Z,99111.81
2023-01-19T14:05:56.201Z,99110.53
2023-01-19T14:08:25.713Z,99112.34
2023-01-19T14:10:57.100Z,99112.34
2023-01-19T14:13:26.872Z,99114.78
2023-01-19T14:15:59.880Z,99123.69
2023-01-19T14:18:31.876Z,99117.28
2023-01-19T14:21:06.061Z,99125.19
2023-01-19T14:23:57.317Z,99127.63
2023-01-19T14:26:52.068Z,99136.22
2023-01-19T14:29:33.241Z,99125.00
2023-01-19T14:32:07.788Z,99123.22
2023-01-19T14:34:53.913Z,99125.53
2023-01-19T14:37:50.441Z,99129.47
2023-01-19T14:40:24.461Z,99125.72
2023-01-19T14:43:03.162Z,99137.53
2023-01-19T14:45:41.515Z,99139.38
2023-01-19T14:48:22.312Z,99147.28
2023-01-19T14:51:02.693Z,99155.81
2023-01-19T14:53:38.348Z,99146.13
2023-01-19T14:56:08.555Z,99151.22
2023-01-19T14:58:37.319Z,99156.97
2023-01-19T15:01:06.384Z,99149.72
2023-01-19T15:03:44.120Z,99152.53
2023-01-19T15:06:20.878Z,99157.63
2023-01-19T15:08:50.352Z,99160.03
2023-01-19T15:11:32.671Z,99154.09
2023-01-19T15:14:01.713Z,99158.53
2023-01-19T15:16:34.046Z,99158.69
2023-01-19T15:19:02.705Z,99153.66
2023-01-19T15:21:31.227Z,99150.28
2023-01-19T15:24:00.429Z,99147.34
2023-01-19T15:26:29.392Z,99152.63
2023-01-19T15:28:58.059Z,99156.75
2023-01-19T15:31:27.732Z,99154.63
2023-01-19T15:33:56.323Z,99163.50
2023-01-19T15:36:25.465Z,99150.13
2023-01-19T15:38:54.069Z,99160.66
2023-01-19T15:41:28.101Z,99165.84
2023-01-19T15:43:56.736Z,99171.91
2023-01-19T15:46:26.416Z,99159.59
2023-01-19T15:48:55.267Z,99156.97
2023-01-19T15:51:26.708Z,99155.47
2023-01-19T15:53:56.625Z,99162.22
2023-01-19T15:56:31.596Z,99170.50
2023-01-19T15:59:00.707Z,99171.53
2023-01-19T16:01:32.178Z,99166.50
2023-01-19T16:04:02.851Z,99170.94
2023-01-19T16:06:31.888Z,99171.78
2023-01-19T16:09:01.842Z,99182.59
2023-01-19T16:11:33.464Z,99177.56
2023-01-19T16:14:02.452Z,99182.50
2023-01-19T16:16:31.008Z,99172.44
2023-01-19T16:18:59.654Z,99181.16
2023-01-19T16:21:28.403Z,99185.06
2023-01-19T16:23:56.966Z,99188.22
2023-01-19T16:26:34.995Z,99185.59
2023-01-19T16:29:08.701Z,99184.47
2023-01-19T16:31:38.280Z,99184.09
2023-01-19T16:34:06.903Z,99183.44
2023-01-19T16:36:37.731Z,99192.81
2023-01-19T16:39:14.662Z,99198.91
2023-01-19T16:41:43.978Z,99200.84
2023-01-19T16:44:15.353Z,99207.22
2023-01-19T16:46:46.945Z,99199.88
2023-01-19T16:49:16.441Z,99203.47
2023-01-19T16:51:45.615Z,99203.47
2023-01-19T16:54:23.368Z,99204.16
2023-01-19T16:56:51.991Z,99199.34
2023-01-19T16:59:21.229Z,99207.41
2023-01-19T17:01:50.946Z,99205.06
2023-01-19T17:04:20.663Z,99208.97
2023-01-19T17:06:49.932Z,99207.16
2023-01-19T17:09:19.120Z,99211.06
2023-01-19T17:11:47.935Z,99210.22
2023-01-19T17:14:21.780Z,99213.53
2023-01-19T17:16:50.791Z,99210.59
2023-01-19T17:19:22.035Z,99218.72
2023-01-19T17:21:51.352Z,99208.78
2023-01-19T17:24:20.274Z,99216.84
2023-01-19T17:26:49.502Z,99215.34
2023-01-19T17:29:18.733Z,99219.59
2023-01-19T17:31:47.463Z,99222.78
2023-01-19T17:34:16.237Z,99218.94
2023-01-19T17:36:45.153Z,99220.31
2023-01-19T17:39:17.010Z,99232.16
2023-01-19T17:41:45.695Z,99231.84
2023-01-19T17:44:14.291Z,99226.91
2023-01-19T17:46:42.815Z,99222.34
2023-01-19T17:49:12.034Z,99234.06
2023-01-19T17:51:40.629Z,99229.47
2023-01-19T17:54:10.824Z,99238.41
2023-01-19T17:56:41.439Z,99239.94
2023-01-19T17:59:10.389Z,99244.19
2023-01-19T18:01:40.496Z,99242.03
2023-01-19T18:04:10.070Z,99243.13
2023-01-19T18:06:41.414Z,99243.13
2023-01-19T18:09:10.242Z,99243.31
2023-01-19T18:11:38.877Z,99247.28
2023-01-19T18:14:07.549Z,99243.84
2023-01-19T18:16:37.148Z,99255.03
2023-01-19T18:19:05.789Z,99248.63
2023-01-19T18:21:34.542Z,99245.03
2023-01-19T18:24:06.203Z,99256.69
2023-01-19T18:26:36.445Z,99262.91
2023-01-19T18:29:05.419Z,99252.25
2023-01-19T18:31:33.950Z,99257.94
2023-01-19T18:34:02.439Z,99251.44
2023-01-19T18:36:32.067Z,99245.41
2023-01-19T18:39:00.638Z,99251.03
2023-01-19T18:41:29.919Z,99251.34
2023-01-19T18:44:01.397Z,99252.16
2023-01-19T18:46:29.921Z,99250.38
2023-01-19T18:48:58.449Z,99257.19
2023-01-19T18:51:26.987Z,99254.56
2023-01-19T18:53:55.528Z,99249.47
2023-01-19T18:56:23.998Z,99259.16
2023-01-19T18:58:53.198Z,99262.22
2023-01-19T19:01:33.114Z,99272.72
2023-01-19T19:04:01.927Z,99265.69
2023-01-19T19:06:30.505Z,99265.97
2023-01-19T19:09:00.220Z,99267.34
2023-01-19T19:11:29.422Z,99271.38
2023-01-19T19:14:03.313Z,99274.69
2023-01-19T19:16:34.984Z,99273.63
2023-01-19T19:19:04.317Z,99272.78
2023-01-19T19:21:32.883Z,99277.91
2023-01-19T19:24:01.496Z,99282.63
2023-01-19T19:26:30.777Z,99275.41
2023-01-19T19:28:59.347Z,99280.31
2023-01-19T19:31:28.136Z,99281.94
2023-01-19T19:33:58.118Z,99286.38
2023-01-19T19:36:28.411Z,99288.56
2023-01-19T19:38:57.097Z,99286.75
2023-01-19T19:41:27.648Z,99295.47
2023-01-19T19:43:56.910Z,99298.13
2023-01-19T19:46:25.881Z,99299.63
2023-01-19T19:48:55.163Z,99298.94
2023-01-19T19:51:29.505Z,99302.53
2023-01-19T19:54:00.282Z,99304.34
2023-01-19T19:56:32.306Z,99307.41
2023-01-19T19:59:01.108Z,99311.38
2023-01-19T20:01:33.750Z,99321.06
2023-01-19T20:04:09.769Z,99326.19
2023-01-19T20:06:44.577Z,99328.53
2023-01-19T20:09:14.300Z,99332.53
2023-01-19T20:11:46.730Z,99331.53
2023-01-19T20:14:16.526Z,99337.34
2023-01-19T20:16:45.766Z,99343.97
2023-01-19T20:19:14.363Z,99342.16
2023-01-19T20:21:43.756Z,99343.53
2023-01-19T20:24:21.005Z,99351.56
2023-01-19T20:26:52.973Z,99355.84
2023-01-19T20:29:21.822Z,99355.84
2023-01-19T20:31:56.441Z,99360.44
2023-01-19T20:34:32.893Z,99365.97
2023-01-19T20:37:02.167Z,99362.53
2023-01-19T20:39:33.328Z,99373.84
2023-01-19T20:42:02.351Z,99370.97
2023-01-19T20:44:31.316Z,99376.91
2023-01-19T20:47:00.294Z,99378.28
2023-01-19T20:49:28.760Z,99371.88
2023-01-19T20:51:57.359Z,99378.66
2023-01-19T20:54:30.324Z,99372.56
2023-01-19T20:56:59.796Z,99380.44
2023-01-19T20:59:28.400Z,99376.97
2023-01-19T21:01:57.133Z,99386.59
2023-01-19T21:04:25.741Z,99378.56
2023-01-19T21:06:54.286Z,99390.88
2023-01-19T21:09:23.000Z,99388.53
2023-01-19T21:11:51.589Z,99395.44
2023-01-19T21:14:20.148Z,99397.09
2023-01-19T21:16:48.727Z,99394.34
2023-01-19T21:19:17.455Z,99397.66
2023-01-19T21:21:46.154Z,99399.59
2023-01-19T21:24:14.655Z,99405.66
2023-01-19T21:26:43.200Z,99402.22
2023-01-19T21:29:13.382Z,99408.16
2023-01-19T21:31:43.139Z,99411.34
2023-01-19T21:34:11.886Z,99404.28
2023-01-19T21:36:40.403Z,99408.69
2023-01-19T21:39:09.189Z,99416.06
2023-01-19T21:41:39.861Z,99423.53
2023-01-19T21:44:08.375Z,99423.53
2023-01-19T21:46:36.834Z,99431.25
2023-01-19T21:49:08.169Z,99430.28
2023-01-19T21:51:38.225Z,99435.25
2023-01-19T21:54:07.937Z,99440.50
2023-01-19T21:56:37.986Z,99432.63
2023-01-19T21:59:07.603Z,99441.19
2023-01-19T22:01:36.660Z,99443.16
2023-01-19T22:04:05.375Z,99445.78
2023-01-19T22:06:34.286Z,99448.53
2023-01-19T22:09:02.923Z,99457.25
2023-01-19T22:11:31.900Z,99454.34
2023-01-19T22:14:01.001Z,99460.31
2023-01-19T22:16:30.842Z,99466.09
2023-01-19T22:19:02.389Z,99463.19
2023-01-19T22:21:36.389Z,99464.28
2023-01-19T22:24:06.433Z,99460.84
2023-01-19T22:26:35.380Z,99459.84
2023-01-19T22:29:05.540Z,99471.50
2023-01-19T22:31:34.241Z,99466.25
2023-01-19T22:34:02.896Z,99474.97
2023-01-19T22:36:34.537Z,99469.16
2023-01-19T22:39:11.945Z,99473.47
2023-01-19T22:41:46.479Z,99470.97
2023-01-19T22:44:20.790Z,99473.75
2023-01-19T22:46:51.311Z,99478.31
2023-01-19T22:49:20.168Z,99474.03
2023-01-19T22:51:48.843Z,99472.38
2023-01-19T22:54:17.505Z,99484.03
2023-01-19T22:56:46.066Z,99479.56
2023-01-19T22:59:14.529Z,99476.78
2023-01-19T23:01:45.688Z,99475.84
2023-01-19T23:04:16.703Z,99479.97
2023-01-19T23:06:46.946Z,99477.34
2023-01-19T23:09:16.089Z,99479.81
2023-01-19T23:11:50.520Z,99481.47
2023-01-19T23:14:22.213Z,99482.31
2023-01-19T23:16:50.639Z,99489.38
2023-01-19T23:19:19.665Z,99487.56
2023-01-19T23:21:48.356Z,99492.00
2023-01-19T23:24:16.986Z,99487.56
2023-01-19T23:26:45.415Z,99498.69
2023-01-19T23:29:16.028Z,99497.72
2023-01-19T23:31:48.314Z,99497.97
2023-01-19T23:34:17.215Z,99495.63
2023-01-19T23:36:45.888Z,99508.50
2023-01-19T23:39:23.814Z,99503.22
2023-01-19T23:41:52.530Z,99502.44
2023-01-19T23:44:21.042Z,99504.91
2023-01-19T23:46:49.573Z,99502.97
2023-01-19T23:49:18.162Z,99495.09
2023-01-19T23:51:46.666Z,99511.81
2023-01-19T23:54:15.116Z,99516.94
2023-01-19T23:56:43.665Z,99512.50
2023-01-19T23:59:15.072Z,99519.72
